Portada
METAR-TAF:

METAR-TAF

Aeroports :

Vidalia Regional Airport

Vidalia, Geòrgia, Estats Units d'Amèrica

latitud: 32-11-33N, longitud: 082-22-19W, altitud: 84 m

Observació

L'informe es va fer fa 20 minuts, a les 13:55 UTC
Vent 9 kt del Est/Nord-Est
Temperatura 8°C
Humitat 66%
Pressió 1030 hPa
Visibilitat: 16.1 km
Núvols disperses a una alçada de 3900 ft

METAR: KVDI 181355Z AUTO 07009KT 10SM SCT039 08/02 A3043 RMK AO2

Hora: 09:15 (14:15 UTC)


TAF: manca

Observacions i pronòstics meteorològics de més de 4000 aeroports (METAR i TAF).

Les estacions disponibles són els punts grocs i vermells al mapa.

Posi el ratolí al punt desitjat per veure el nom de l'estació.

Feu clic per veure les observacions i els pronòstics meteorològics.

Per canviar el mapa: feu clic els botons verds amb una creu de color negre per apropar; al botó verd amb un guió per allunyar la imatge; o en les fletxes verdes per a mapes adjacents.


METAR-TAF: